This demonstration page uses our WeatherBlox Daily Observations layout. Learn more.

Left ArrowRight Arrow

39.92423, -83.80882

Hourly Observations for March 4, 2020

Temp ( °F °C ) Dew Point ( °F °C ) Humidity (%) Winds ( mph kmh ) Pressure ( in mb ) Visibility ( mi km ) Precip ( " mm )
12:56 am 00:56 Clear 39 3.9 32 0 76 76 W 10 17 29.9 1013 10 16.0934 0 0
1:56 am 01:56 Clear 36 2.2 31 -0.6 82 82 SW 7 11 29.9 1013 10 16.0934 0 0
2:56 am 02:56 Clear 36 2.2 31 -0.6 82 82 SW 8 13 29.88 1012 10 16.0934 0 0
3:56 am 03:56 Clear 37 2.8 31 -0.6 79 79 SW 12 19 29.89 1012 10 16.0934 0 0
4:56 am 04:56 Clear 37 2.8 30 -1.1 76 76 SW 10 17 29.9 1013 10 16.0934 0 0
5:56 am 05:56 Clear 37 2.8 30 -1.1 76 76 SSW 9 15 29.92 1013 10 16.0934 0 0
6:56 am 06:56 Clear 37 2.8 30 -1.1 76 76 SSW 9 15 29.9 1012 10 16.0934 0 0
7:56 am 07:56 Mostly Cloudy 39 3.9 30 -1.1 70 70 SSW 12 19 29.9 1012 10 16.0934 0 0
8:56 am 08:56 Mostly Cloudy 44 6.7 31 -0.6 60 60 SSW 13 20 29.87 1011 10 16.0934 0 0
9:56 am 09:56 Cloudy 46 7.8 32 0 58 58 SW 14 22 29.9 1012 10 16.0934 0 0
10:56 am 10:56 Cloudy 48 8.9 34 1.1 58 58 SW 16 26 29.88 1012 10 16.0934 0 0
11:56 am 11:56 Cloudy 50 10 34 1.1 54 54 W 12 19 29.89 1012 10 16.0934 0 0
12:56 pm 12:56 Cloudy 50 10 36 2.2 59 59 W 13 20 29.87 1012 10 16.0934 0 0
1:56 pm 13:56 Mostly Cloudy 55 12.8 36 2.2 49 49 W 23 37 29.85 1011 10 16.0934 0 0
2:56 pm 14:56 Mostly Sunny 53 11.7 37 2.8 55 55 WNW 21 33 29.89 1012 10 16.0934 0 0
3:56 pm 15:56 Mostly Sunny 52 11.1 38 3.3 59 59 NW 18 30 29.93 1014 10 16.0934 0.01 0.254
4:56 pm 16:56 Sunny 51 10.6 36 2.2 56 56 WNW 18 30 29.96 1015 10 16.0934 0 0
5:56 pm 17:56 Sunny 48 8.9 33 0.6 56 56 NW 13 20 29.98 1015 10 16.0934 0 0
6:56 pm 18:56 Clear 44 6.7 32 0 63 63 NW 9 15 30.01 1016 10 16.0934 0 0
7:56 pm 19:56 Clear 42 5.6 33 0.6 71 71 NW 12 19 30.06 1018 10 16.0934 0 0
8:56 pm 20:56 Clear 39 3.9 32 0 76 76 NW 7 11 30.09 1019 10 16.0934 0 0
9:56 pm 21:56 Clear 35 1.7 31 -0.6 85 85 N 7 11 30.11 1020 10 16.0934 0 0
10:56 pm 22:56 Clear 34 1.1 28 -2.2 79 79 N 7 11 30.12 1020 10 16.0934 0 0
11:56 pm 23:56 Clear 33 0.6 26 -3.3 75 75 N 6 9 30.11 1020 10 16.0934 0 0

Powered by AerisWeather